sensor_id;sensor_type;location;lat;lon;timestamp;P1;durP1;ratioP1;P2;durP2;ratioP2
50291;SDS011;36190;54.980;73.388;2023-07-29T00:01:02;11.23;;;5.55;;
50291;SDS011;36190;54.980;73.388;2023-07-29T00:03:30;9.85;;;5.38;;
50291;SDS011;36190;54.980;73.388;2023-07-29T00:05:57;9.35;;;5.43;;
50291;SDS011;36190;54.980;73.388;2023-07-29T00:08:25;11.00;;;4.93;;
50291;SDS011;36190;54.980;73.388;2023-07-29T00:10:53;9.93;;;5.63;;
50291;SDS011;36190;54.980;73.388;2023-07-29T00:13:20;11.30;;;5.50;;
50291;SDS011;36190;54.980;73.388;2023-07-29T00:15:47;8.85;;;5.47;;
50291;SDS011;36190;54.980;73.388;2023-07-29T00:18:16;9.90;;;5.40;;
50291;SDS011;36190;54.980;73.388;2023-07-29T00:20:44;10.82;;;5.45;;
50291;SDS011;36190;54.980;73.388;2023-07-29T00:23:12;11.30;;;6.07;;
50291;SDS011;36190;54.980;73.388;2023-07-29T00:25:39;10.23;;;5.25;;
50291;SDS011;36190;54.980;73.388;2023-07-29T00:28:07;11.07;;;5.78;;
50291;SDS011;36190;54.980;73.388;2023-07-29T00:30:34;11.40;;;5.55;;
50291;SDS011;36190;54.980;73.388;2023-07-29T00:33:02;9.38;;;5.60;;
50291;SDS011;36190;54.980;73.388;2023-07-29T00:35:31;9.95;;;5.75;;
50291;SDS011;36190;54.980;73.388;2023-07-29T00:37:58;10.25;;;6.00;;
50291;SDS011;36190;54.980;73.388;2023-07-29T00:40:26;10.75;;;6.18;;
50291;SDS011;36190;54.980;73.388;2023-07-29T00:42:55;11.40;;;5.40;;
50291;SDS011;36190;54.980;73.388;2023-07-29T00:45:23;9.77;;;5.38;;
50291;SDS011;36190;54.980;73.388;2023-07-29T00:47:52;8.70;;;5.00;;
50291;SDS011;36190;54.980;73.388;2023-07-29T00:50:20;10.98;;;5.72;;
50291;SDS011;36190;54.980;73.388;2023-07-29T00:52:50;10.95;;;5.50;;
50291;SDS011;36190;54.980;73.388;2023-07-29T00:55:17;17.10;;;5.55;;
50291;SDS011;36190;54.980;73.388;2023-07-29T00:57:45;11.20;;;6.05;;
50291;SDS011;36190;54.980;73.388;2023-07-29T01:00:14;14.05;;;5.60;;
50291;SDS011;36190;54.980;73.388;2023-07-29T01:02:42;11.77;;;5.82;;
50291;SDS011;36190;54.980;73.388;2023-07-29T01:05:10;10.52;;;5.78;;
50291;SDS011;36190;54.980;73.388;2023-07-29T01:07:42;12.30;;;5.15;;
50291;SDS011;36190;54.980;73.388;2023-07-29T01:10:18;10.07;;;5.57;;
50291;SDS011;36190;54.980;73.388;2023-07-29T01:12:54;9.82;;;5.80;;
50291;SDS011;36190;54.980;73.388;2023-07-29T01:15:29;11.02;;;5.90;;
50291;SDS011;36190;54.980;73.388;2023-07-29T01:18:04;12.63;;;6.10;;
50291;SDS011;36190;54.980;73.388;2023-07-29T01:20:35;11.77;;;5.88;;
50291;SDS011;36190;54.980;73.388;2023-07-29T01:23:07;10.23;;;5.90;;
50291;SDS011;36190;54.980;73.388;2023-07-29T01:25:35;12.05;;;6.35;;
50291;SDS011;36190;54.980;73.388;2023-07-29T01:28:03;11.05;;;5.93;;
50291;SDS011;36190;54.980;73.388;2023-07-29T01:30:32;11.20;;;5.57;;
50291;SDS011;36190;54.980;73.388;2023-07-29T01:33:06;11.98;;;5.78;;
50291;SDS011;36190;54.980;73.388;2023-07-29T01:35:42;13.68;;;5.57;;
50291;SDS011;36190;54.980;73.388;2023-07-29T01:38:13;15.27;;;6.20;;
50291;SDS011;36190;54.980;73.388;2023-07-29T01:40:45;13.23;;;6.18;;
50291;SDS011;36190;54.980;73.388;2023-07-29T01:43:16;12.70;;;6.50;;
50291;SDS011;36190;54.980;73.388;2023-07-29T01:45:48;11.82;;;6.55;;
50291;SDS011;36190;54.980;73.388;2023-07-29T01:48:16;12.73;;;6.80;;
50291;SDS011;36190;54.980;73.388;2023-07-29T01:50:44;12.15;;;6.75;;
50291;SDS011;36190;54.980;73.388;2023-07-29T01:53:11;10.85;;;6.82;;
50291;SDS011;36190;54.980;73.388;2023-07-29T01:55:39;13.35;;;7.18;;
50291;SDS011;36190;54.980;73.388;2023-07-29T01:58:08;17.52;;;7.43;;
50291;SDS011;36190;54.980;73.388;2023-07-29T02:00:35;12.52;;;6.95;;
50291;SDS011;36190;54.980;73.388;2023-07-29T02:03:02;11.98;;;7.05;;
50291;SDS011;36190;54.980;73.388;2023-07-29T02:05:30;13.02;;;6.57;;
50291;SDS011;36190;54.980;73.388;2023-07-29T02:07:57;10.20;;;6.70;;
50291;SDS011;36190;54.980;73.388;2023-07-29T02:10:25;11.95;;;6.45;;
50291;SDS011;36190;54.980;73.388;2023-07-29T02:12:52;13.90;;;7.03;;
50291;SDS011;36190;54.980;73.388;2023-07-29T02:15:21;12.90;;;7.60;;
50291;SDS011;36190;54.980;73.388;2023-07-29T02:17:49;12.95;;;6.97;;
50291;SDS011;36190;54.980;73.388;2023-07-29T02:20:17;13.75;;;6.85;;
50291;SDS011;36190;54.980;73.388;2023-07-29T02:22:45;12.30;;;6.72;;
50291;SDS011;36190;54.980;73.388;2023-07-29T02:25:13;11.93;;;7.25;;
50291;SDS011;36190;54.980;73.388;2023-07-29T02:27:41;13.35;;;7.68;;
50291;SDS011;36190;54.980;73.388;2023-07-29T02:30:09;14.32;;;8.07;;
50291;SDS011;36190;54.980;73.388;2023-07-29T02:32:39;17.73;;;8.73;;
50291;SDS011;36190;54.980;73.388;2023-07-29T02:35:06;18.38;;;8.85;;
50291;SDS011;36190;54.980;73.388;2023-07-29T02:37:35;32.75;;;10.13;;
50291;SDS011;36190;54.980;73.388;2023-07-29T02:40:03;18.35;;;9.27;;
50291;SDS011;36190;54.980;73.388;2023-07-29T02:42:31;15.40;;;9.13;;
50291;SDS011;36190;54.980;73.388;2023-07-29T02:44:58;14.98;;;9.52;;
50291;SDS011;36190;54.980;73.388;2023-07-29T02:47:26;18.05;;;9.55;;
50291;SDS011;36190;54.980;73.388;2023-07-29T02:49:55;16.10;;;10.05;;
50291;SDS011;36190;54.980;73.388;2023-07-29T02:52:22;14.73;;;9.80;;
50291;SDS011;36190;54.980;73.388;2023-07-29T02:54:50;19.45;;;11.00;;
50291;SDS011;36190;54.980;73.388;2023-07-29T02:57:17;16.17;;;9.63;;
50291;SDS011;36190;54.980;73.388;2023-07-29T02:59:44;16.48;;;10.15;;
50291;SDS011;36190;54.980;73.388;2023-07-29T03:02:12;14.77;;;10.38;;
50291;SDS011;36190;54.980;73.388;2023-07-29T03:04:41;18.45;;;11.35;;
50291;SDS011;36190;54.980;73.388;2023-07-29T03:07:10;18.90;;;11.63;;
50291;SDS011;36190;54.980;73.388;2023-07-29T03:09:39;17.90;;;11.32;;
50291;SDS011;36190;54.980;73.388;2023-07-29T03:12:07;16.38;;;11.40;;
50291;SDS011;36190;54.980;73.388;2023-07-29T03:14:35;16.35;;;12.05;;
50291;SDS011;36190;54.980;73.388;2023-07-29T03:17:02;15.90;;;11.63;;
50291;SDS011;36190;54.980;73.388;2023-07-29T03:19:30;19.17;;;11.55;;
50291;SDS011;36190;54.980;73.388;2023-07-29T03:21:58;15.90;;;11.35;;
50291;SDS011;36190;54.980;73.388;2023-07-29T03:24:27;15.45;;;11.48;;
50291;SDS011;36190;54.980;73.388;2023-07-29T03:26:54;15.57;;;12.27;;
50291;SDS011;36190;54.980;73.388;2023-07-29T03:29:22;19.33;;;12.68;;
50291;SDS011;36190;54.980;73.388;2023-07-29T03:31:49;17.90;;;12.50;;
50291;SDS011;36190;54.980;73.388;2023-07-29T03:34:17;16.35;;;12.35;;
50291;SDS011;36190;54.980;73.388;2023-07-29T03:36:44;16.05;;;11.25;;
50291;SDS011;36190;54.980;73.388;2023-07-29T03:39:13;16.60;;;11.57;;
50291;SDS011;36190;54.980;73.388;2023-07-29T03:41:42;17.77;;;12.77;;
50291;SDS011;36190;54.980;73.388;2023-07-29T03:44:09;27.25;;;17.40;;
50291;SDS011;36190;54.980;73.388;2023-07-29T03:46:37;32.78;;;20.33;;
50291;SDS011;36190;54.980;73.388;2023-07-29T03:49:04;44.35;;;23.13;;
50291;SDS011;36190;54.980;73.388;2023-07-29T03:51:32;38.03;;;21.05;;
50291;SDS011;36190;54.980;73.388;2023-07-29T03:54:00;40.88;;;22.08;;
50291;SDS011;36190;54.980;73.388;2023-07-29T03:56:27;35.85;;;21.08;;
50291;SDS011;36190;54.980;73.388;2023-07-29T03:59:03;30.20;;;17.48;;
50291;SDS011;36190;54.980;73.388;2023-07-29T04:01:31;25.27;;;15.32;;
50291;SDS011;36190;54.980;73.388;2023-07-29T04:03:59;31.10;;;19.63;;
50291;SDS011;36190;54.980;73.388;2023-07-29T04:06:27;27.02;;;16.63;;
50291;SDS011;36190;54.980;73.388;2023-07-29T04:08:54;27.33;;;16.70;;
50291;SDS011;36190;54.980;73.388;2023-07-29T04:11:23;31.08;;;16.65;;
50291;SDS011;36190;54.980;73.388;2023-07-29T04:13:51;24.60;;;14.43;;
50291;SDS011;36190;54.980;73.388;2023-07-29T04:16:20;30.88;;;17.60;;
50291;SDS011;36190;54.980;73.388;2023-07-29T04:18:48;23.15;;;15.00;;
50291;SDS011;36190;54.980;73.388;2023-07-29T04:21:16;19.95;;;14.65;;
50291;SDS011;36190;54.980;73.388;2023-07-29T04:23:44;20.20;;;14.13;;
50291;SDS011;36190;54.980;73.388;2023-07-29T04:26:12;23.40;;;14.80;;
50291;SDS011;36190;54.980;73.388;2023-07-29T04:28:40;20.15;;;14.05;;
50291;SDS011;36190;54.980;73.388;2023-07-29T04:31:08;20.42;;;14.80;;
50291;SDS011;36190;54.980;73.388;2023-07-29T04:33:37;18.50;;;12.70;;
50291;SDS011;36190;54.980;73.388;2023-07-29T04:36:05;18.63;;;13.18;;
50291;SDS011;36190;54.980;73.388;2023-07-29T04:38:32;17.85;;;13.82;;
50291;SDS011;36190;54.980;73.388;2023-07-29T04:41:00;18.70;;;13.40;;
50291;SDS011;36190;54.980;73.388;2023-07-29T04:43:28;17.23;;;13.73;;
50291;SDS011;36190;54.980;73.388;2023-07-29T04:45:57;18.42;;;13.93;;
50291;SDS011;36190;54.980;73.388;2023-07-29T04:48:24;19.83;;;14.25;;
50291;SDS011;36190;54.980;73.388;2023-07-29T04:50:53;21.20;;;14.60;;
50291;SDS011;36190;54.980;73.388;2023-07-29T04:53:21;19.33;;;13.25;;
50291;SDS011;36190;54.980;73.388;2023-07-29T04:55:48;25.20;;;16.50;;
50291;SDS011;36190;54.980;73.388;2023-07-29T04:58:16;31.08;;;18.80;;
50291;SDS011;36190;54.980;73.388;2023-07-29T05:00:43;36.40;;;19.08;;
50291;SDS011;36190;54.980;73.388;2023-07-29T05:03:13;40.78;;;21.73;;
50291;SDS011;36190;54.980;73.388;2023-07-29T05:05:40;24.45;;;15.15;;
50291;SDS011;36190;54.980;73.388;2023-07-29T05:08:09;20.23;;;14.73;;
50291;SDS011;36190;54.980;73.388;2023-07-29T05:10:37;19.17;;;13.25;;
50291;SDS011;36190;54.980;73.388;2023-07-29T05:13:04;29.80;;;16.70;;
50291;SDS011;36190;54.980;73.388;2023-07-29T05:15:32;27.40;;;16.02;;
50291;SDS011;36190;54.980;73.388;2023-07-29T05:17:59;22.23;;;14.65;;
50291;SDS011;36190;54.980;73.388;2023-07-29T05:20:26;25.73;;;14.20;;
50291;SDS011;36190;54.980;73.388;2023-07-29T05:22:54;26.58;;;15.95;;
50291;SDS011;36190;54.980;73.388;2023-07-29T05:25:23;24.08;;;15.05;;
50291;SDS011;36190;54.980;73.388;2023-07-29T05:27:50;15.18;;;11.05;;
50291;SDS011;36190;54.980;73.388;2023-07-29T05:30:18;17.70;;;11.85;;
50291;SDS011;36190;54.980;73.388;2023-07-29T05:32:45;18.70;;;12.60;;
50291;SDS011;36190;54.980;73.388;2023-07-29T05:35:13;15.27;;;11.57;;
50291;SDS011;36190;54.980;73.388;2023-07-29T05:37:41;14.88;;;10.45;;
50291;SDS011;36190;54.980;73.388;2023-07-29T05:40:08;16.95;;;11.32;;
50291;SDS011;36190;54.980;73.388;2023-07-29T05:42:38;21.20;;;15.02;;
50291;SDS011;36190;54.980;73.388;2023-07-29T05:45:06;24.52;;;16.77;;
50291;SDS011;36190;54.980;73.388;2023-07-29T05:47:34;22.23;;;15.57;;
50291;SDS011;36190;54.980;73.388;2023-07-29T05:50:02;25.40;;;14.40;;
50291;SDS011;36190;54.980;73.388;2023-07-29T05:52:31;22.52;;;13.85;;
50291;SDS011;36190;54.980;73.388;2023-07-29T05:54:58;24.83;;;15.30;;
50291;SDS011;36190;54.980;73.388;2023-07-29T05:57:26;25.05;;;14.85;;
50291;SDS011;36190;54.980;73.388;2023-07-29T05:59:56;23.77;;;14.82;;
50291;SDS011;36190;54.980;73.388;2023-07-29T06:02:23;23.88;;;14.85;;
50291;SDS011;36190;54.980;73.388;2023-07-29T06:04:51;25.50;;;15.02;;
50291;SDS011;36190;54.980;73.388;2023-07-29T06:07:19;20.92;;;13.35;;
50291;SDS011;36190;54.980;73.388;2023-07-29T06:09:46;22.05;;;13.63;;
50291;SDS011;36190;54.980;73.388;2023-07-29T06:12:14;19.08;;;12.10;;
50291;SDS011;36190;54.980;73.388;2023-07-29T06:14:41;19.88;;;12.82;;
50291;SDS011;36190;54.980;73.388;2023-07-29T06:17:10;18.75;;;12.77;;
50291;SDS011;36190;54.980;73.388;2023-07-29T06:19:38;18.83;;;13.35;;
50291;SDS011;36190;54.980;73.388;2023-07-29T06:22:05;16.38;;;12.27;;
50291;SDS011;36190;54.980;73.388;2023-07-29T06:24:33;17.13;;;12.00;;
50291;SDS011;36190;54.980;73.388;2023-07-29T06:27:00;15.57;;;11.18;;
50291;SDS011;36190;54.980;73.388;2023-07-29T06:29:28;19.40;;;13.48;;
50291;SDS011;36190;54.980;73.388;2023-07-29T06:31:56;24.17;;;13.40;;
50291;SDS011;36190;54.980;73.388;2023-07-29T06:34:24;18.90;;;12.93;;
50291;SDS011;36190;54.980;73.388;2023-07-29T06:36:52;16.60;;;12.23;;
50291;SDS011;36190;54.980;73.388;2023-07-29T06:39:19;19.38;;;12.38;;
50291;SDS011;36190;54.980;73.388;2023-07-29T06:41:47;18.00;;;12.18;;
50291;SDS011;36190;54.980;73.388;2023-07-29T06:44:15;19.63;;;11.82;;
50291;SDS011;36190;54.980;73.388;2023-07-29T06:46:42;18.98;;;12.07;;
50291;SDS011;36190;54.980;73.388;2023-07-29T06:49:10;20.42;;;12.27;;
50291;SDS011;36190;54.980;73.388;2023-07-29T06:51:39;15.60;;;11.35;;
50291;SDS011;36190;54.980;73.388;2023-07-29T06:54:06;17.05;;;12.40;;
50291;SDS011;36190;54.980;73.388;2023-07-29T06:56:34;15.38;;;11.20;;
50291;SDS011;36190;54.980;73.388;2023-07-29T06:59:02;17.65;;;11.95;;
50291;SDS011;36190;54.980;73.388;2023-07-29T07:01:29;16.20;;;11.73;;
50291;SDS011;36190;54.980;73.388;2023-07-29T07:03:57;16.98;;;11.57;;
50291;SDS011;36190;54.980;73.388;2023-07-29T07:06:24;16.02;;;11.05;;
50291;SDS011;36190;54.980;73.388;2023-07-29T07:08:53;15.75;;;10.98;;
50291;SDS011;36190;54.980;73.388;2023-07-29T07:11:21;14.80;;;11.02;;
50291;SDS011;36190;54.980;73.388;2023-07-29T07:13:49;15.30;;;10.98;;
50291;SDS011;36190;54.980;73.388;2023-07-29T07:16:16;16.85;;;11.77;;
50291;SDS011;36190;54.980;73.388;2023-07-29T07:18:44;15.38;;;10.57;;
50291;SDS011;36190;54.980;73.388;2023-07-29T07:21:11;15.15;;;10.52;;
50291;SDS011;36190;54.980;73.388;2023-07-29T07:23:39;17.90;;;12.02;;
50291;SDS011;36190;54.980;73.388;2023-07-29T07:26:08;15.60;;;11.00;;
50291;SDS011;36190;54.980;73.388;2023-07-29T07:28:35;15.77;;;10.63;;
50291;SDS011;36190;54.980;73.388;2023-07-29T07:31:03;14.60;;;10.27;;
50291;SDS011;36190;54.980;73.388;2023-07-29T07:33:30;14.93;;;11.35;;
50291;SDS011;36190;54.980;73.388;2023-07-29T07:35:58;16.08;;;11.18;;
50291;SDS011;36190;54.980;73.388;2023-07-29T07:38:25;25.05;;;11.80;;
50291;SDS011;36190;54.980;73.388;2023-07-29T07:40:53;16.40;;;11.80;;
50291;SDS011;36190;54.980;73.388;2023-07-29T07:43:23;15.13;;;10.90;;
50291;SDS011;36190;54.980;73.388;2023-07-29T07:45:51;15.38;;;11.25;;
50291;SDS011;36190;54.980;73.388;2023-07-29T07:48:24;15.32;;;11.80;;
50291;SDS011;36190;54.980;73.388;2023-07-29T07:50:52;14.55;;;10.60;;
50291;SDS011;36190;54.980;73.388;2023-07-29T07:53:19;17.55;;;11.10;;
50291;SDS011;36190;54.980;73.388;2023-07-29T07:55:47;17.08;;;11.85;;
50291;SDS011;36190;54.980;73.388;2023-07-29T07:58:14;15.60;;;11.48;;
50291;SDS011;36190;54.980;73.388;2023-07-29T08:00:44;15.82;;;11.68;;
50291;SDS011;36190;54.980;73.388;2023-07-29T08:03:11;14.02;;;10.77;;
50291;SDS011;36190;54.980;73.388;2023-07-29T08:05:39;15.52;;;11.52;;
50291;SDS011;36190;54.980;73.388;2023-07-29T08:08:06;18.98;;;11.63;;
50291;SDS011;36190;54.980;73.388;2023-07-29T08:10:34;15.68;;;11.60;;
50291;SDS011;36190;54.980;73.388;2023-07-29T08:13:02;15.75;;;10.43;;
50291;SDS011;36190;54.980;73.388;2023-07-29T08:15:29;15.68;;;11.23;;
50291;SDS011;36190;54.980;73.388;2023-07-29T08:17:58;13.75;;;10.57;;
50291;SDS011;36190;54.980;73.388;2023-07-29T08:20:26;13.85;;;10.50;;
50291;SDS011;36190;54.980;73.388;2023-07-29T08:22:54;13.98;;;9.95;;
50291;SDS011;36190;54.980;73.388;2023-07-29T08:25:21;16.75;;;10.65;;
50291;SDS011;36190;54.980;73.388;2023-07-29T08:27:49;14.10;;;10.25;;
50291;SDS011;36190;54.980;73.388;2023-07-29T08:30:16;14.55;;;10.10;;
50291;SDS011;36190;54.980;73.388;2023-07-29T08:32:44;15.13;;;10.23;;
50291;SDS011;36190;54.980;73.388;2023-07-29T08:35:13;14.95;;;10.18;;
50291;SDS011;36190;54.980;73.388;2023-07-29T08:37:41;15.82;;;10.43;;
50291;SDS011;36190;54.980;73.388;2023-07-29T08:40:09;13.23;;;9.85;;
50291;SDS011;36190;54.980;73.388;2023-07-29T08:42:37;16.90;;;10.18;;
50291;SDS011;36190;54.980;73.388;2023-07-29T08:45:06;13.93;;;9.82;;
50291;SDS011;36190;54.980;73.388;2023-07-29T08:47:36;13.93;;;9.75;;
50291;SDS011;36190;54.980;73.388;2023-07-29T08:50:03;14.80;;;9.93;;
50291;SDS011;36190;54.980;73.388;2023-07-29T08:52:34;14.13;;;10.30;;
50291;SDS011;36190;54.980;73.388;2023-07-29T08:55:02;16.83;;;9.60;;
50291;SDS011;36190;54.980;73.388;2023-07-29T08:57:31;14.45;;;9.27;;
50291;SDS011;36190;54.980;73.388;2023-07-29T08:59:58;13.70;;;9.65;;
50291;SDS011;36190;54.980;73.388;2023-07-29T09:02:27;13.05;;;9.68;;
50291;SDS011;36190;54.980;73.388;2023-07-29T09:04:55;14.27;;;9.25;;
50291;SDS011;36190;54.980;73.388;2023-07-29T09:07:22;12.93;;;8.82;;
50291;SDS011;36190;54.980;73.388;2023-07-29T09:09:51;13.95;;;9.38;;
50291;SDS011;36190;54.980;73.388;2023-07-29T09:12:19;13.65;;;8.88;;
50291;SDS011;36190;54.980;73.388;2023-07-29T09:14:46;13.77;;;9.23;;
50291;SDS011;36190;54.980;73.388;2023-07-29T09:17:14;12.25;;;8.88;;
50291;SDS011;36190;54.980;73.388;2023-07-29T09:19:42;13.38;;;8.73;;
50291;SDS011;36190;54.980;73.388;2023-07-29T09:22:17;12.23;;;8.38;;
50291;SDS011;36190;54.980;73.388;2023-07-29T09:24:45;12.48;;;8.40;;
50291;SDS011;36190;54.980;73.388;2023-07-29T09:27:24;13.50;;;8.77;;
50291;SDS011;36190;54.980;73.388;2023-07-29T09:29:52;15.13;;;7.88;;
50291;SDS011;36190;54.980;73.388;2023-07-29T09:32:20;11.13;;;8.00;;
50291;SDS011;36190;54.980;73.388;2023-07-29T09:34:49;13.90;;;8.65;;
50291;SDS011;36190;54.980;73.388;2023-07-29T09:37:17;12.23;;;7.90;;
50291;SDS011;36190;54.980;73.388;2023-07-29T09:39:45;12.82;;;8.18;;
50291;SDS011;36190;54.980;73.388;2023-07-29T09:42:17;11.00;;;7.88;;
50291;SDS011;36190;54.980;73.388;2023-07-29T09:44:47;11.98;;;8.32;;
50291;SDS011;36190;54.980;73.388;2023-07-29T09:47:19;12.95;;;8.00;;
50291;SDS011;36190;54.980;73.388;2023-07-29T09:49:47;12.50;;;8.45;;
50291;SDS011;36190;54.980;73.388;2023-07-29T09:52:15;11.05;;;7.60;;
50291;SDS011;36190;54.980;73.388;2023-07-29T09:54:44;14.05;;;9.00;;
50291;SDS011;36190;54.980;73.388;2023-07-29T09:57:12;13.13;;;8.60;;
50291;SDS011;36190;54.980;73.388;2023-07-29T09:59:41;11.73;;;8.02;;
50291;SDS011;36190;54.980;73.388;2023-07-29T10:02:13;11.57;;;8.13;;
50291;SDS011;36190;54.980;73.388;2023-07-29T10:04:43;15.43;;;8.05;;
50291;SDS011;36190;54.980;73.388;2023-07-29T10:07:12;12.68;;;8.32;;
50291;SDS011;36190;54.980;73.388;2023-07-29T10:09:41;15.98;;;8.68;;
50291;SDS011;36190;54.980;73.388;2023-07-29T10:12:10;11.52;;;8.45;;
50291;SDS011;36190;54.980;73.388;2023-07-29T10:14:38;12.15;;;7.65;;
50291;SDS011;36190;54.980;73.388;2023-07-29T10:17:06;12.80;;;8.45;;
50291;SDS011;36190;54.980;73.388;2023-07-29T10:19:36;12.63;;;7.90;;
50291;SDS011;36190;54.980;73.388;2023-07-29T10:22:04;15.00;;;8.75;;
50291;SDS011;36190;54.980;73.388;2023-07-29T10:24:33;12.73;;;7.95;;
50291;SDS011;36190;54.980;73.388;2023-07-29T10:27:01;12.80;;;8.30;;
50291;SDS011;36190;54.980;73.388;2023-07-29T10:29:30;13.38;;;8.43;;
50291;SDS011;36190;54.980;73.388;2023-07-29T10:32:00;13.60;;;8.10;;
50291;SDS011;36190;54.980;73.388;2023-07-29T10:34:30;14.00;;;8.13;;
50291;SDS011;36190;54.980;73.388;2023-07-29T10:37:01;13.88;;;7.72;;
50291;SDS011;36190;54.980;73.388;2023-07-29T10:39:32;13.38;;;7.50;;
50291;SDS011;36190;54.980;73.388;2023-07-29T10:42:06;13.18;;;6.53;;
50291;SDS011;36190;54.980;73.388;2023-07-29T10:44:46;11.15;;;6.68;;
50291;SDS011;36190;54.980;73.388;2023-07-29T10:47:17;10.15;;;6.55;;
50291;SDS011;36190;54.980;73.388;2023-07-29T10:49:46;10.88;;;6.07;;
50291;SDS011;36190;54.980;73.388;2023-07-29T10:52:27;9.70;;;6.13;;
50291;SDS011;36190;54.980;73.388;2023-07-29T10:54:58;9.50;;;6.13;;
50291;SDS011;36190;54.980;73.388;2023-07-29T10:57:30;10.88;;;6.70;;
50291;SDS011;36190;54.980;73.388;2023-07-29T10:59:59;10.88;;;6.68;;
50291;SDS011;36190;54.980;73.388;2023-07-29T11:02:29;10.93;;;6.63;;
50291;SDS011;36190;54.980;73.388;2023-07-29T11:04:58;10.82;;;6.53;;
50291;SDS011;36190;54.980;73.388;2023-07-29T11:10:11;11.60;;;6.28;;
50291;SDS011;36190;54.980;73.388;2023-07-29T11:12:43;11.15;;;6.50;;
50291;SDS011;36190;54.980;73.388;2023-07-29T11:15:20;10.15;;;6.35;;
50291;SDS011;36190;54.980;73.388;2023-07-29T11:17:49;9.95;;;6.55;;
50291;SDS011;36190;54.980;73.388;2023-07-29T11:20:20;10.38;;;6.10;;
50291;SDS011;36190;54.980;73.388;2023-07-29T11:22:50;9.80;;;5.57;;
50291;SDS011;36190;54.980;73.388;2023-07-29T11:25:18;9.73;;;5.28;;
50291;SDS011;36190;54.980;73.388;2023-07-29T11:27:45;10.38;;;5.85;;
50291;SDS011;36190;54.980;73.388;2023-07-29T11:30:13;10.60;;;5.85;;
50291;SDS011;36190;54.980;73.388;2023-07-29T11:32:42;14.82;;;6.40;;
50291;SDS011;36190;54.980;73.388;2023-07-29T11:35:11;9.43;;;5.75;;
50291;SDS011;36190;54.980;73.388;2023-07-29T11:37:41;10.00;;;5.63;;
50291;SDS011;36190;54.980;73.388;2023-07-29T11:40:14;10.18;;;6.03;;
50291;SDS011;36190;54.980;73.388;2023-07-29T11:42:42;9.63;;;5.63;;
50291;SDS011;36190;54.980;73.388;2023-07-29T11:45:10;9.05;;;6.05;;
50291;SDS011;36190;54.980;73.388;2023-07-29T11:47:38;11.32;;;6.32;;
50291;SDS011;36190;54.980;73.388;2023-07-29T11:50:06;11.38;;;6.85;;
50291;SDS011;36190;54.980;73.388;2023-07-29T11:52:35;11.60;;;6.18;;
50291;SDS011;36190;54.980;73.388;2023-07-29T11:55:07;11.40;;;6.40;;
50291;SDS011;36190;54.980;73.388;2023-07-29T11:57:37;10.48;;;6.70;;
50291;SDS011;36190;54.980;73.388;2023-07-29T12:00:05;10.45;;;6.45;;
50291;SDS011;36190;54.980;73.388;2023-07-29T12:02:35;10.93;;;6.30;;
50291;SDS011;36190;54.980;73.388;2023-07-29T12:05:05;11.18;;;6.72;;
50291;SDS011;36190;54.980;73.388;2023-07-29T12:07:33;11.45;;;6.90;;
50291;SDS011;36190;54.980;73.388;2023-07-29T12:10:01;10.98;;;6.18;;
50291;SDS011;36190;54.980;73.388;2023-07-29T12:12:29;12.40;;;5.57;;
50291;SDS011;36190;54.980;73.388;2023-07-29T12:14:58;8.52;;;5.05;;
50291;SDS011;36190;54.980;73.388;2023-07-29T12:17:26;11.48;;;5.30;;
50291;SDS011;36190;54.980;73.388;2023-07-29T12:19:53;10.48;;;5.13;;
50291;SDS011;36190;54.980;73.388;2023-07-29T12:22:21;17.52;;;6.82;;
50291;SDS011;36190;54.980;73.388;2023-07-29T12:24:51;13.85;;;6.03;;
50291;SDS011;36190;54.980;73.388;2023-07-29T12:27:19;15.65;;;6.60;;
50291;SDS011;36190;54.980;73.388;2023-07-29T12:29:49;10.50;;;5.60;;
50291;SDS011;36190;54.980;73.388;2023-07-29T12:32:20;9.65;;;5.75;;
50291;SDS011;36190;54.980;73.388;2023-07-29T12:34:52;10.38;;;5.80;;
50291;SDS011;36190;54.980;73.388;2023-07-29T12:37:20;9.95;;;5.40;;
50291;SDS011;36190;54.980;73.388;2023-07-29T12:39:58;9.60;;;5.90;;
50291;SDS011;36190;54.980;73.388;2023-07-29T12:42:26;12.02;;;6.15;;
50291;SDS011;36190;54.980;73.388;2023-07-29T12:44:53;9.90;;;6.07;;
50291;SDS011;36190;54.980;73.388;2023-07-29T12:47:22;10.95;;;5.43;;
50291;SDS011;36190;54.980;73.388;2023-07-29T12:49:49;8.85;;;5.35;;
50291;SDS011;36190;54.980;73.388;2023-07-29T12:52:17;10.13;;;5.20;;
50291;SDS011;36190;54.980;73.388;2023-07-29T12:54:45;8.85;;;5.28;;
50291;SDS011;36190;54.980;73.388;2023-07-29T12:57:12;11.70;;;5.00;;
50291;SDS011;36190;54.980;73.388;2023-07-29T12:59:40;10.10;;;5.65;;
50291;SDS011;36190;54.980;73.388;2023-07-29T13:02:08;9.93;;;6.07;;
50291;SDS011;36190;54.980;73.388;2023-07-29T13:04:37;9.63;;;5.53;;
50291;SDS011;36190;54.980;73.388;2023-07-29T13:07:05;9.00;;;5.40;;
50291;SDS011;36190;54.980;73.388;2023-07-29T13:09:32;10.63;;;5.93;;
50291;SDS011;36190;54.980;73.388;2023-07-29T13:12:00;10.60;;;5.28;;
50291;SDS011;36190;54.980;73.388;2023-07-29T13:14:28;11.80;;;5.70;;
50291;SDS011;36190;54.980;73.388;2023-07-29T13:16:56;10.65;;;5.60;;
50291;SDS011;36190;54.980;73.388;2023-07-29T13:19:23;11.57;;;5.85;;
50291;SDS011;36190;54.980;73.388;2023-07-29T13:21:52;10.38;;;5.88;;
50291;SDS011;36190;54.980;73.388;2023-07-29T13:24:19;10.48;;;5.72;;
50291;SDS011;36190;54.980;73.388;2023-07-29T13:26:47;11.35;;;5.78;;
50291;SDS011;36190;54.980;73.388;2023-07-29T13:29:14;10.95;;;5.93;;
50291;SDS011;36190;54.980;73.388;2023-07-29T13:31:42;10.50;;;6.57;;
50291;SDS011;36190;54.980;73.388;2023-07-29T13:34:09;10.23;;;5.80;;
50291;SDS011;36190;54.980;73.388;2023-07-29T13:36:37;10.05;;;5.80;;
50291;SDS011;36190;54.980;73.388;2023-07-29T13:39:06;8.93;;;5.28;;
50291;SDS011;36190;54.980;73.388;2023-07-29T13:41:34;9.80;;;5.53;;
50291;SDS011;36190;54.980;73.388;2023-07-29T13:44:01;9.77;;;6.07;;
50291;SDS011;36190;54.980;73.388;2023-07-29T13:46:29;10.65;;;5.30;;
50291;SDS011;36190;54.980;73.388;2023-07-29T13:48:56;10.93;;;5.63;;
50291;SDS011;36190;54.980;73.388;2023-07-29T13:51:24;9.77;;;5.63;;
50291;SDS011;36190;54.980;73.388;2023-07-29T13:53:52;9.52;;;5.25;;
50291;SDS011;36190;54.980;73.388;2023-07-29T13:56:23;11.27;;;5.68;;
50291;SDS011;36190;54.980;73.388;2023-07-29T13:58:50;9.55;;;5.55;;
50291;SDS011;36190;54.980;73.388;2023-07-29T14:01:17;11.23;;;6.25;;
50291;SDS011;36190;54.980;73.388;2023-07-29T14:03:45;9.75;;;5.95;;
50291;SDS011;36190;54.980;73.388;2023-07-29T14:06:12;10.55;;;5.70;;
50291;SDS011;36190;54.980;73.388;2023-07-29T15:11:15;8.93;;;3.70;;
50291;SDS011;36190;54.980;73.388;2023-07-29T15:13:42;9.18;;;4.13;;
50291;SDS011;36190;54.980;73.388;2023-07-29T15:16:10;8.43;;;4.25;;
50291;SDS011;36190;54.980;73.388;2023-07-29T15:18:37;12.45;;;4.20;;
50291;SDS011;36190;54.980;73.388;2023-07-29T15:21:04;9.07;;;4.22;;
50291;SDS011;36190;54.980;73.388;2023-07-29T15:23:32;10.35;;;4.50;;
50291;SDS011;36190;54.980;73.388;2023-07-29T15:25:59;8.68;;;4.38;;
50291;SDS011;36190;54.980;73.388;2023-07-29T15:28:28;11.93;;;5.03;;
50291;SDS011;36190;54.980;73.388;2023-07-29T15:30:56;10.32;;;5.05;;